createdAt,value
2019-02-02T00:00:30.243Z,3.51
2019-02-02T00:02:56.175Z,1.56
2019-02-02T00:05:22.110Z,3.43
2019-02-02T00:07:47.938Z,3.45
2019-02-02T00:10:16.604Z,3.52
2019-02-02T00:12:42.406Z,3.61
2019-02-02T00:15:12.188Z,3.76
2019-02-02T00:17:38.125Z,3.78
2019-02-02T00:20:07.721Z,3.85
2019-02-02T00:22:55.440Z,3.86
2019-02-02T00:25:21.283Z,3.85
2019-02-02T00:27:47.306Z,3.85
2019-02-02T00:30:15.678Z,3.81
2019-02-02T00:32:41.535Z,3.76
2019-02-02T00:35:07.900Z,3.71
2019-02-02T00:37:33.992Z,3.79
2019-02-02T00:39:59.856Z,3.81
2019-02-02T00:42:25.936Z,3.70
2019-02-02T00:44:51.845Z,3.76
2019-02-02T00:47:17.752Z,3.72
2019-02-02T00:49:43.611Z,3.71
2019-02-02T00:52:09.441Z,3.69
2019-02-02T00:54:35.276Z,3.70
2019-02-02T00:57:01.218Z,3.69
2019-02-02T00:59:27.317Z,3.75
2019-02-02T01:01:53.173Z,3.75
2019-02-02T01:04:19.004Z,3.81
2019-02-02T01:06:44.815Z,3.87
2019-02-02T01:09:13.250Z,3.75
2019-02-02T01:11:39.466Z,3.64
2019-02-02T01:14:05.491Z,3.75
2019-02-02T01:16:31.612Z,3.72
2019-02-02T01:18:57.708Z,3.53
2019-02-02T01:21:23.700Z,3.65
2019-02-02T01:23:49.851Z,3.62
2019-02-02T01:26:15.677Z,3.47
2019-02-02T01:28:44.780Z,3.49
2019-02-02T01:31:11.497Z,3.55
2019-02-02T01:33:37.337Z,3.63
2019-02-02T01:36:03.135Z,3.62
2019-02-02T01:38:28.961Z,3.54
2019-02-02T01:40:54.923Z,3.49
2019-02-02T01:43:21.195Z,3.48
2019-02-02T01:45:50.106Z,3.45
2019-02-02T01:48:16.226Z,3.46
2019-02-02T01:50:44.847Z,3.46
2019-02-02T01:53:10.913Z,3.53
2019-02-02T01:55:39.972Z,3.53
2019-02-02T01:58:16.003Z,3.56
2019-02-02T02:00:33.766Z,3.60
2019-02-02T02:02:59.926Z,3.64
2019-02-02T02:05:29.101Z,3.74
2019-02-02T02:07:55.157Z,3.75
2019-02-02T02:10:21.374Z,3.70
2019-02-02T02:12:47.356Z,3.64
2019-02-02T02:15:15.285Z,3.62
2019-02-02T02:17:41.295Z,3.64
2019-02-02T02:20:09.557Z,3.66
2019-02-02T02:22:41.294Z,3.75
2019-02-02T02:25:07.560Z,3.74
2019-02-02T02:27:33.377Z,3.77
2019-02-02T02:29:59.243Z,3.87
2019-02-02T02:32:25.316Z,3.90
2019-02-02T02:34:51.549Z,3.92
2019-02-02T02:37:20.634Z,3.91
2019-02-02T02:39:46.716Z,3.97
2019-02-02T02:42:15.508Z,3.97
2019-02-02T02:44:41.333Z,3.92
2019-02-02T02:47:07.172Z,3.87
2019-02-02T02:49:33.279Z,3.88
2019-02-02T02:51:59.414Z,3.84
2019-02-02T02:54:25.260Z,3.78
2019-02-02T02:56:51.114Z,3.75
2019-02-02T02:59:20.010Z,3.75
2019-02-02T03:01:46.103Z,3.73
2019-02-02T03:04:15.243Z,3.67
2019-02-02T03:06:41.381Z,3.74
2019-02-02T03:09:09.983Z,3.72
2019-02-02T03:11:35.788Z,3.71
2019-02-02T03:14:04.419Z,3.75
2019-02-02T03:16:30.246Z,3.58
2019-02-02T03:21:48.474Z,3.57
2019-02-02T03:24:14.277Z,3.67
2019-02-02T03:26:40.142Z,3.75
2019-02-02T03:29:06.013Z,3.67
2019-02-02T03:31:31.819Z,3.61
2019-02-02T03:33:57.630Z,3.68
2019-02-02T03:36:23.725Z,3.74
2019-02-02T03:38:49.557Z,3.65
2019-02-02T03:41:15.674Z,3.68
2019-02-02T03:43:41.932Z,3.78
2019-02-02T03:46:08.056Z,3.86
2019-02-02T03:48:34.193Z,3.92
2019-02-02T03:51:00.004Z,3.93
2019-02-02T03:53:25.896Z,3.99
2019-02-02T03:55:52.063Z,4.02
2019-02-02T03:58:18.157Z,3.98
2019-02-02T04:00:43.987Z,4.04
2019-02-02T04:03:10.164Z,4.10
2019-02-02T04:05:36.566Z,4.07
2019-02-02T04:08:02.387Z,4.03
2019-02-02T04:10:28.203Z,4.00
2019-02-02T04:12:54.039Z,4.00
2019-02-02T04:15:20.482Z,3.91
2019-02-02T04:17:46.287Z,3.76
2019-02-02T04:20:14.419Z,3.81
2019-02-02T04:22:40.754Z,3.85
2019-02-02T04:25:07.382Z,3.89
2019-02-02T04:27:36.336Z,3.97
2019-02-02T04:30:06.237Z,3.99
2019-02-02T04:32:32.171Z,4.04
2019-02-02T04:34:58.125Z,4.04
2019-02-02T04:37:24.199Z,3.94
2019-02-02T04:39:50.041Z,3.94
2019-02-02T04:42:15.878Z,3.86
2019-02-02T04:44:41.741Z,3.87
2019-02-02T04:47:07.567Z,3.80
2019-02-02T04:49:36.565Z,3.90
2019-02-02T04:52:02.388Z,3.81
2019-02-02T04:54:31.232Z,3.79
2019-02-02T04:56:57.073Z,3.87
2019-02-02T04:59:29.369Z,3.93
2019-02-02T05:01:53.705Z,3.97
2019-02-02T05:04:19.866Z,4.00
2019-02-02T05:06:45.961Z,4.03
2019-02-02T05:09:14.679Z,4.08
2019-02-02T05:11:40.490Z,4.09
2019-02-02T05:14:06.442Z,3.90
2019-02-02T05:16:32.263Z,3.83
2019-02-02T05:18:58.125Z,3.72
2019-02-02T05:21:27.706Z,3.66
2019-02-02T05:23:53.591Z,3.65
2019-02-02T05:26:20.470Z,3.72
2019-02-02T05:28:46.311Z,3.68
2019-02-02T05:31:15.934Z,3.67
2019-02-02T05:33:41.782Z,3.74
2019-02-02T05:36:10.658Z,3.73
2019-02-02T05:38:36.771Z,3.71
2019-02-02T05:41:05.843Z,3.65
2019-02-02T05:43:31.675Z,3.53
2019-02-02T05:46:00.505Z,3.44
2019-02-02T05:48:26.351Z,3.34
2019-02-02T05:50:52.180Z,3.16
2019-02-02T05:53:18.113Z,3.14
2019-02-02T05:55:43.945Z,3.00
2019-02-02T05:58:13.151Z,2.90
2019-02-02T06:00:40.914Z,2.65
2019-02-02T06:03:06.746Z,2.50
2019-02-02T06:05:32.663Z,2.33
2019-02-02T06:08:01.883Z,2.32
2019-02-02T06:10:27.975Z,2.31
2019-02-02T06:12:56.681Z,2.40
2019-02-02T06:15:22.909Z,2.45
2019-02-02T06:17:51.904Z,2.48
2019-02-02T06:20:17.749Z,2.53
2019-02-02T06:22:45.437Z,2.70
2019-02-02T06:25:13.365Z,2.81
2019-02-02T06:27:39.185Z,2.91
2019-02-02T06:30:14.187Z,2.93
2019-02-02T06:32:39.985Z,2.98
2019-02-02T06:35:08.642Z,2.80
2019-02-02T06:37:34.450Z,2.81
2019-02-02T06:40:00.573Z,2.74
2019-02-02T06:42:26.379Z,2.73
2019-02-02T06:44:52.229Z,2.81
2019-02-02T06:47:18.044Z,2.85
2019-02-02T06:49:43.976Z,2.86
2019-02-02T06:52:09.885Z,2.77
2019-02-02T06:54:36.087Z,2.84
2019-02-02T06:57:01.881Z,2.87
2019-02-02T06:59:30.485Z,2.45
2019-02-02T07:01:56.607Z,2.82
2019-02-02T07:04:22.738Z,2.77
2019-02-02T07:06:48.636Z,2.75
2019-02-02T07:09:14.502Z,2.77
2019-02-02T07:11:43.355Z,2.82
2019-02-02T07:14:09.441Z,2.81
2019-02-02T07:16:38.314Z,2.83
2019-02-02T07:19:04.439Z,2.74
2019-02-02T07:21:31.710Z,2.72
2019-02-02T07:23:57.833Z,2.74
2019-02-02T07:26:26.653Z,2.73
2019-02-02T07:28:52.476Z,2.77
2019-02-02T07:31:21.404Z,2.77
2019-02-02T07:33:47.225Z,2.76
2019-02-02T07:36:16.809Z,2.72
2019-02-02T07:38:42.947Z,2.66
2019-02-02T07:41:08.769Z,2.61
2019-02-02T07:43:34.700Z,2.60
2019-02-02T07:46:00.541Z,2.58
2019-02-02T07:48:29.819Z,2.58
2019-02-02T07:50:55.910Z,2.63
2019-02-02T07:53:24.805Z,2.54
2019-02-02T07:55:50.881Z,2.52
2019-02-02T07:58:16.936Z,2.67
2019-02-02T08:00:42.772Z,2.81
2019-02-02T08:03:13.539Z,2.98
2019-02-02T08:05:39.366Z,3.13
2019-02-02T08:08:08.245Z,3.24
2019-02-02T08:10:34.054Z,3.33
2019-02-02T08:13:03.644Z,3.44
2019-02-02T08:15:31.533Z,3.40
2019-02-02T08:17:57.370Z,3.39
2019-02-02T08:20:23.554Z,3.54
2019-02-02T08:22:49.486Z,4.91
2019-02-02T08:25:15.444Z,6.36
2019-02-02T08:27:41.761Z,7.29
2019-02-02T08:30:29.345Z,7.29
2019-02-02T08:32:55.203Z,7.78
2019-02-02T08:35:21.435Z,8.13
2019-02-02T08:37:47.664Z,8.87
2019-02-02T08:40:15.600Z,10.01
2019-02-02T08:42:41.737Z,10.44
2019-02-02T08:45:09.017Z,11.37
2019-02-02T08:47:34.879Z,10.90
2019-02-02T08:50:00.695Z,10.07
2019-02-02T08:52:26.557Z,11.38
2019-02-02T08:54:52.613Z,12.60
2019-02-02T08:57:18.710Z,13.59
2019-02-02T08:59:44.546Z,14.53
2019-02-02T09:02:10.490Z,15.51
2019-02-02T09:04:36.401Z,16.13
2019-02-02T09:07:02.265Z,16.62
2019-02-02T09:09:28.400Z,17.53
2019-02-02T09:11:54.507Z,18.72
2019-02-02T09:14:20.329Z,18.43
2019-02-02T09:16:46.166Z,19.05
2019-02-02T09:19:12.286Z,18.46
2019-02-02T09:21:38.570Z,17.79
2019-02-02T09:24:04.361Z,17.76
2019-02-02T09:26:31.455Z,18.31
2019-02-02T09:28:57.550Z,18.09
2019-02-02T09:31:23.397Z,17.40
2019-02-02T09:33:49.214Z,16.88
2019-02-02T09:36:16.930Z,18.02
2019-02-02T09:38:45.710Z,17.00
2019-02-02T09:41:11.544Z,15.41
2019-02-02T09:43:40.707Z,15.41
2019-02-02T09:46:06.517Z,14.52
2019-02-02T09:48:35.372Z,14.86
2019-02-02T09:51:01.189Z,15.84
2019-02-02T09:53:29.988Z,16.83
2019-02-02T09:55:56.175Z,18.96
2019-02-02T09:58:22.012Z,19.32
2019-02-02T10:00:47.875Z,19.32
2019-02-02T10:03:16.989Z,18.58
2019-02-02T10:05:42.825Z,17.72
2019-02-02T10:08:12.514Z,16.56
2019-02-02T10:10:38.422Z,16.60
2019-02-02T10:13:04.673Z,16.95
2019-02-02T10:15:30.514Z,17.02
2019-02-02T10:17:56.449Z,17.01
2019-02-02T10:20:28.225Z,16.98
2019-02-02T10:22:54.857Z,17.42
2019-02-02T10:25:23.741Z,18.04
2019-02-02T10:27:49.644Z,18.04
2019-02-02T10:30:28.072Z,18.77
2019-02-02T10:32:54.249Z,19.37
2019-02-02T10:35:20.101Z,18.52
2019-02-02T10:37:45.944Z,16.30
2019-02-02T10:40:13.438Z,14.22
2019-02-02T10:42:39.348Z,13.23
2019-02-02T10:45:08.744Z,11.81
2019-02-02T10:47:34.621Z,10.89
2019-02-02T10:50:00.867Z,10.50
2019-02-02T10:52:27.050Z,10.59
2019-02-02T10:54:53.166Z,10.78
2019-02-02T10:57:19.281Z,11.55
2019-02-02T10:59:45.094Z,11.65
2019-02-02T11:02:11.225Z,11.66
2019-02-02T11:04:37.111Z,11.83
2019-02-02T11:07:03.376Z,12.11
2019-02-02T11:09:29.161Z,12.13
2019-02-02T11:11:55.047Z,12.28
2019-02-02T11:14:20.886Z,12.21
2019-02-02T11:16:49.699Z,12.35
2019-02-02T11:19:15.987Z,12.34
2019-02-02T11:21:42.357Z,12.28
2019-02-02T11:24:08.623Z,12.00
2019-02-02T11:26:34.811Z,12.00
2019-02-02T11:29:00.945Z,11.81
2019-02-02T11:31:26.739Z,11.70
2019-02-02T11:33:53.794Z,11.46
2019-02-02T11:36:19.649Z,11.41
2019-02-02T11:38:51.085Z,11.34
2019-02-02T11:41:16.920Z,11.44
2019-02-02T11:43:45.782Z,11.52
2019-02-02T11:46:11.650Z,11.49
2019-02-02T11:48:40.476Z,11.54
2019-02-02T11:51:06.331Z,11.58
2019-02-02T11:53:37.357Z,11.75
2019-02-02T11:56:03.240Z,11.99
2019-02-02T11:58:29.360Z,12.03
2019-02-02T12:00:55.214Z,12.12
2019-02-02T12:03:21.039Z,12.10
2019-02-02T12:05:46.888Z,11.97
2019-02-02T12:08:13.616Z,12.03
2019-02-02T12:10:39.451Z,12.10
2019-02-02T12:13:05.286Z,12.36
2019-02-02T12:15:36.160Z,12.67
2019-02-02T12:18:02.197Z,12.68
2019-02-02T12:20:33.357Z,12.84
2019-02-02T12:22:59.049Z,13.38
2019-02-02T12:25:25.247Z,13.33
2019-02-02T12:27:51.385Z,13.11
2019-02-02T12:30:46.176Z,13.03
2019-02-02T12:33:12.084Z,13.15
2019-02-02T12:35:37.916Z,13.76
2019-02-02T12:38:04.127Z,14.00
2019-02-02T12:40:29.965Z,13.96
2019-02-02T12:42:55.791Z,13.82
2019-02-02T12:45:25.061Z,13.59
2019-02-02T12:47:50.992Z,13.71
2019-02-02T12:50:17.166Z,14.06
2019-02-02T12:52:43.293Z,13.85
2019-02-02T12:55:10.243Z,13.49
2019-02-02T12:57:36.335Z,13.17
2019-02-02T13:00:11.786Z,13.07
2019-02-02T13:02:38.574Z,12.73
2019-02-02T13:05:06.461Z,12.60
2019-02-02T13:07:32.611Z,12.20
2019-02-02T13:09:58.425Z,12.15
2019-02-02T13:12:24.546Z,12.16
2019-02-02T13:14:50.668Z,12.03
2019-02-02T13:17:16.499Z,11.88
2019-02-02T13:19:42.352Z,11.66
2019-02-02T13:22:08.351Z,11.37
2019-02-02T13:24:34.425Z,11.07
2019-02-02T13:27:00.273Z,10.63
2019-02-02T13:29:26.114Z,10.45
2019-02-02T13:31:52.415Z,10.25
2019-02-02T13:34:18.268Z,10.02
2019-02-02T13:36:44.192Z,9.97
2019-02-02T13:39:10.323Z,9.83
2019-02-02T13:41:36.174Z,9.81
2019-02-02T13:44:02.393Z,9.61
2019-02-02T13:46:28.622Z,9.51
2019-02-02T13:48:54.470Z,9.42
2019-02-02T13:51:20.286Z,9.35
2019-02-02T13:53:46.089Z,9.28
2019-02-02T13:56:11.917Z,9.22
2019-02-02T13:58:37.988Z,8.98
2019-02-02T14:01:03.814Z,9.01
2019-02-02T14:03:30.061Z,9.03
2019-02-02T14:05:55.877Z,9.00
2019-02-02T14:08:21.730Z,9.03
2019-02-02T14:10:47.653Z,8.97
2019-02-02T14:13:13.748Z,8.90
2019-02-02T14:15:39.743Z,8.81
2019-02-02T14:18:05.980Z,8.74
2019-02-02T14:20:34.853Z,8.57
2019-02-02T14:23:00.669Z,8.52
2019-02-02T14:25:26.747Z,8.47
2019-02-02T14:27:52.612Z,8.46
2019-02-02T14:30:20.580Z,8.35
2019-02-02T14:32:46.524Z,8.33
2019-02-02T14:35:14.627Z,8.25
2019-02-02T14:37:40.689Z,8.26
2019-02-02T14:40:11.817Z,8.28
2019-02-02T14:42:37.914Z,8.28
2019-02-02T14:45:07.324Z,8.21
2019-02-02T14:47:33.167Z,8.25
2019-02-02T14:49:58.969Z,8.22
2019-02-02T14:52:25.074Z,8.17
2019-02-02T14:54:51.038Z,8.17
2019-02-02T14:57:20.136Z,8.15
2019-02-02T14:59:46.226Z,8.08
2019-02-02T15:02:12.085Z,8.14
2019-02-02T15:04:37.953Z,8.12
2019-02-02T15:07:03.783Z,8.07
2019-02-02T15:09:32.701Z,8.04
2019-02-02T15:11:58.517Z,8.01
2019-02-02T15:14:26.014Z,7.95
2019-02-02T15:16:51.842Z,7.93
2019-02-02T15:19:22.546Z,7.88
2019-02-02T15:21:48.387Z,7.77
2019-02-02T15:24:17.332Z,7.79
2019-02-02T15:26:43.301Z,7.75
2019-02-02T15:29:12.234Z,7.78
2019-02-02T15:31:38.065Z,7.66
2019-02-02T15:34:07.153Z,7.57
2019-02-02T15:36:32.981Z,7.50
2019-02-02T15:38:58.825Z,7.56
2019-02-02T15:41:24.902Z,7.50
2019-02-02T15:43:51.007Z,7.45
2019-02-02T15:46:16.837Z,7.45
2019-02-02T15:48:42.742Z,7.43
2019-02-02T15:51:11.395Z,7.37
2019-02-02T15:53:37.505Z,5.84
2019-02-02T15:56:06.355Z,7.21
2019-02-02T15:58:32.199Z,7.26
2019-02-02T16:01:01.570Z,7.24
2019-02-02T16:03:27.497Z,6.26
2019-02-02T16:05:56.093Z,7.20
2019-02-02T16:08:21.931Z,7.12
2019-02-02T16:10:51.000Z,7.01
2019-02-02T16:13:16.814Z,6.82
2019-02-02T16:15:42.637Z,6.71
2019-02-02T16:18:08.692Z,6.60
2019-02-02T16:20:36.747Z,6.59
2019-02-02T16:23:03.402Z,6.50
2019-02-02T16:25:29.474Z,6.56
2019-02-02T16:27:58.113Z,6.50
2019-02-02T16:30:29.912Z,6.40
2019-02-02T16:32:55.810Z,6.24
2019-02-02T16:35:22.028Z,6.22
2019-02-02T16:37:48.164Z,6.09
2019-02-02T16:40:27.062Z,5.98
2019-02-02T16:42:53.871Z,5.98
2019-02-02T16:45:23.012Z,5.90
2019-02-02T16:47:49.136Z,5.78
2019-02-02T16:50:16.796Z,5.78
2019-02-02T16:52:43.529Z,5.60
2019-02-02T16:55:11.851Z,5.50
2019-02-02T16:57:37.672Z,5.54
2019-02-02T17:00:07.316Z,5.46
2019-02-02T17:02:33.135Z,5.41
2019-02-02T17:04:58.950Z,5.49
2019-02-02T17:07:24.776Z,5.52
2019-02-02T17:09:50.613Z,5.51
2019-02-02T17:12:16.700Z,5.33
2019-02-02T17:14:42.658Z,5.34
2019-02-02T17:17:08.778Z,5.33
2019-02-02T17:19:34.602Z,5.30
2019-02-02T17:22:00.443Z,5.24
2019-02-02T17:24:26.276Z,5.14
2019-02-02T17:26:52.114Z,5.10
2019-02-02T17:29:17.956Z,5.13
2019-02-02T17:31:44.061Z,5.14
2019-02-02T17:34:09.903Z,5.14
2019-02-02T17:36:35.738Z,5.05
2019-02-02T17:39:01.578Z,4.91
2019-02-02T17:41:27.395Z,4.91
2019-02-02T17:43:53.228Z,4.87
2019-02-02T17:46:23.896Z,4.90
2019-02-02T17:48:49.723Z,4.81
2019-02-02T17:51:18.406Z,4.79
2019-02-02T17:53:44.507Z,4.66
2019-02-02T17:56:13.398Z,4.62
2019-02-02T17:58:40.083Z,4.60
2019-02-02T18:01:06.231Z,4.59
2019-02-02T18:03:32.033Z,4.58
2019-02-02T18:05:58.125Z,4.55
2019-02-02T18:08:23.918Z,4.54
2019-02-02T18:10:49.748Z,4.59
2019-02-02T18:13:18.895Z,4.66
2019-02-02T18:15:44.719Z,4.71
2019-02-02T18:18:12.642Z,4.62
2019-02-02T18:20:38.465Z,4.59
2019-02-02T18:23:07.478Z,4.58
2019-02-02T18:25:33.595Z,4.59
2019-02-02T18:28:03.043Z,4.64
2019-02-02T18:30:28.972Z,4.69
2019-02-02T18:32:56.265Z,4.72
2019-02-02T18:35:23.186Z,4.76
2019-02-02T18:37:51.815Z,4.79
2019-02-02T18:40:22.889Z,4.88
2019-02-02T18:42:48.941Z,4.95
2019-02-02T18:45:20.068Z,4.86
2019-02-02T18:47:45.921Z,4.84
2019-02-02T18:50:13.836Z,4.91
2019-02-02T18:52:39.750Z,4.92
2019-02-02T18:55:09.401Z,4.98
2019-02-02T18:57:35.213Z,5.06
2019-02-02T19:00:01.322Z,5.08
2019-02-02T19:02:27.510Z,4.94
2019-02-02T19:05:03.453Z,4.90
2019-02-02T19:07:21.359Z,4.83
2019-02-02T19:09:47.212Z,4.80
2019-02-02T19:12:13.044Z,4.74
2019-02-02T19:14:38.886Z,4.72
2019-02-02T19:17:04.709Z,4.77
2019-02-02T19:19:30.853Z,4.80
2019-02-02T19:21:56.705Z,4.88
2019-02-02T19:24:22.548Z,4.95
2019-02-02T19:26:48.641Z,4.92
2019-02-02T19:29:14.477Z,4.99
2019-02-02T19:31:43.359Z,4.97
2019-02-02T19:34:09.460Z,5.03
2019-02-02T19:36:38.654Z,5.11
2019-02-02T19:39:05.837Z,5.13
2019-02-02T19:41:34.754Z,5.16
2019-02-02T19:44:00.583Z,5.13
2019-02-02T19:46:29.513Z,5.06
2019-02-02T19:48:55.616Z,4.88
2019-02-02T19:51:24.421Z,4.88
2019-02-02T19:53:50.532Z,4.86
2019-02-02T19:56:16.340Z,4.88
2019-02-02T19:58:42.143Z,4.87
2019-02-02T20:01:07.991Z,4.83
2019-02-02T20:03:33.821Z,4.62
2019-02-02T20:05:59.969Z,4.51
2019-02-02T20:08:29.215Z,4.52
2019-02-02T20:10:55.140Z,4.59
2019-02-02T20:13:24.000Z,4.58
2019-02-02T20:15:49.844Z,4.63
2019-02-02T20:18:18.782Z,4.67
2019-02-02T20:20:44.898Z,4.70
2019-02-02T20:23:13.765Z,4.70
2019-02-02T20:25:39.948Z,4.78
2019-02-02T20:28:07.627Z,4.89
2019-02-02T20:30:33.607Z,4.91
2019-02-02T20:32:59.810Z,4.94
2019-02-02T20:35:26.119Z,4.98
2019-02-02T20:37:52.453Z,4.94
2019-02-02T20:40:23.321Z,4.92
2019-02-02T20:42:49.435Z,4.99
2019-02-02T20:45:22.360Z,4.97
2019-02-02T20:47:48.190Z,4.96
2019-02-02T20:50:17.774Z,4.86
2019-02-02T20:52:47.709Z,4.81
2019-02-02T20:55:33.555Z,4.83
2019-02-02T20:57:59.432Z,4.88
2019-02-02T21:00:27.237Z,4.82
2019-02-02T21:02:53.137Z,4.85
2019-02-02T21:05:18.948Z,4.84
2019-02-02T21:07:45.030Z,4.78
2019-02-02T21:10:17.088Z,4.75
2019-02-02T21:12:43.133Z,4.79
2019-02-02T21:15:10.865Z,4.79
2019-02-02T21:17:36.710Z,4.78
2019-02-02T21:20:08.922Z,4.86
2019-02-02T21:22:35.570Z,4.81
2019-02-02T21:25:02.076Z,4.76
2019-02-02T21:27:28.189Z,4.77
2019-02-02T21:29:53.993Z,4.81
2019-02-02T21:32:19.814Z,4.80
2019-02-02T21:34:45.617Z,4.82
2019-02-02T21:37:11.442Z,4.86
2019-02-02T21:39:37.256Z,4.87
2019-02-02T21:42:03.206Z,4.87
2019-02-02T21:44:29.040Z,4.89
2019-02-02T21:46:54.943Z,4.82
2019-02-02T21:49:20.759Z,4.83
2019-02-02T21:51:46.837Z,4.81
2019-02-02T21:54:12.679Z,4.83
2019-02-02T21:56:38.501Z,4.90
2019-02-02T21:59:04.613Z,4.70
2019-02-02T22:01:31.036Z,4.54
2019-02-02T22:03:56.904Z,4.54
2019-02-02T22:06:22.740Z,4.56
2019-02-02T22:08:48.825Z,4.64
2019-02-02T22:11:14.629Z,4.70
2019-02-02T22:13:40.465Z,4.71
2019-02-02T22:16:06.561Z,4.60
2019-02-02T22:18:34.206Z,4.63
2019-02-02T22:21:00.230Z,4.16
2019-02-02T22:23:28.341Z,4.53
2019-02-02T22:25:54.571Z,4.49
2019-02-02T22:28:22.677Z,4.52
2019-02-02T22:30:49.130Z,4.57
2019-02-02T22:33:15.226Z,4.61
2019-02-02T22:35:41.061Z,4.61
2019-02-02T22:38:06.994Z,4.58
2019-02-02T22:40:33.209Z,4.58
2019-02-02T22:42:59.004Z,4.59
2019-02-02T22:45:24.858Z,4.54
2019-02-02T22:47:50.704Z,4.45
2019-02-02T22:50:18.350Z,4.49
2019-02-02T22:52:44.550Z,4.49
2019-02-02T22:55:13.017Z,4.56
2019-02-02T22:57:39.111Z,4.61
2019-02-02T23:00:17.306Z,4.68
2019-02-02T23:02:43.269Z,4.67
2019-02-02T23:05:16.323Z,4.71
2019-02-02T23:07:46.004Z,4.68
2019-02-02T23:10:26.631Z,4.71
2019-02-02T23:12:56.279Z,4.71
2019-02-02T23:15:43.335Z,4.71
2019-02-02T23:18:09.432Z,4.78
2019-02-02T23:20:35.285Z,4.78
2019-02-02T23:23:01.459Z,4.70
2019-02-02T23:25:27.563Z,4.70
2019-02-02T23:27:53.803Z,4.78
2019-02-02T23:30:19.606Z,4.78
2019-02-02T23:32:45.431Z,4.77
2019-02-02T23:35:11.722Z,4.81
2019-02-02T23:37:37.937Z,4.73
2019-02-02T23:40:10.424Z,4.80
2019-02-02T23:42:36.552Z,4.77
2019-02-02T23:45:05.587Z,4.77
2019-02-02T23:47:31.438Z,4.80
2019-02-02T23:49:57.288Z,4.88
2019-02-02T23:52:23.084Z,4.63
2019-02-02T23:54:48.955Z,4.92
2019-02-02T23:57:14.870Z,4.94
2019-02-02T23:59:41.005Z,5.01
